| Date | Time | Temp. (oF) | Dew Point (oF) | Rel. Hum. (%) | Press. (in.) | Wind Dir. | Wind Speed (mph) | Hourly Rainfall (in.) |
|
|---|---|---|---|---|---|---|---|---|---|
| 1 | 08/20 | 00:00 | 73 | 72 | 99 | 29.95 | WSW | 0 | 0.00 |
| 2 | 08/19 | 23:00 | 73 | 72 | 98 | 29.95 | SW | 0 | 0.00 |
| 3 | 08/19 | 22:00 | 74 | 73 | 97 | 29.95 | E | 0 | 0.20 |
| 4 | 08/19 | 21:00 | 77 | 72 | 85 | 29.95 | N | 16 | 0.00 |
| 5 | 08/19 | 20:00 | 82 | 74 | 79 | 29.93 | SSE | 0 | 0.00 |
| 6 | 08/19 | 19:00 | 84 | 74 | 73 | 29.90 | S | 0 | 0.00 |
| 7 | 08/19 | 18:00 | 86 | 74 | 68 | 29.90 | SW | 0 | 0.00 |
| 8 | 08/19 | 17:00 | 85 | 72 | 67 | 29.91 | S | 0 | 0.00 |
| 9 | 08/19 | 16:00 | 84 | 71 | 67 | 29.93 | SSE | 0 | 0.00 |
| 10 | 08/19 | 15:00 | 85 | 72 | 67 | 29.95 | S | 0 | 0.00 |
| 11 | 08/19 | 14:00 | 87 | 73 | 64 | 29.95 | SW | 0 | 0.00 |
| 12 | 08/19 | 13:00 | 86 | 74 | 68 | 29.97 | SSW | 5 | 0.00 |
| 13 | 08/19 | 12:00 | 85 | 74 | 71 | 29.98 | SSW | 3 | 0.00 |
| 14 | 08/19 | 11:00 | 83 | 72 | 72 | 30.00 | SW | 0 | 0.00 |
| 15 | 08/19 | 10:00 | 80 | 73 | 81 | 29.99 | N | 0 | 0.00 |
| 16 | 08/19 | 09:00 | 77 | 74 | 91 | 30.00 | NNW | 0 | 0.00 |
| 17 | 08/19 | 08:00 | 73 | 72 | 99 | 29.99 | SSW | 0 | 0.00 |
| 18 | miss | miss | miss | miss | miss | miss | miss | miss | |
| 19 | 08/18 | 18:39 | 77 | 68 | 74 | 29.97 | SSW | 7 | 0.12 |
| 20 | miss | miss | miss | miss | miss | miss | miss | miss | |
| 21 | 08/18 | 18:37 | 78 | 68 | 72 | 29.97 | SSW | 11 | 0.05 |
| 22 | miss | miss | miss | miss | miss | miss | miss | miss | |
| 23 | 08/18 | 18:35 | 79 | 67 | 68 | 29.97 | SSW | 5 | 0.01 |
| 24 | miss | miss | miss | miss | miss | miss | miss | miss | |
| 25 | 08/18 | 18:32 | 80 | 67 | 65 | 29.96 | SW | 4 | 0.00 |
| 26 | miss | miss | miss | miss | miss | miss | miss | miss | |
| 27 | 08/18 | 18:32 | 80 | 67 | 65 | 29.96 | SW | 4 | 0.00 |
| 28 | miss | miss | miss | miss | miss | miss | miss | miss | |
| 29 | 08/18 | 18:32 | 80 | 67 | 65 | 29.96 | SW | 4 | 0.00 |
| 30 | miss | miss | miss | miss | miss | miss | miss | miss | |
| 31 | 08/18 | 18:00 | 88 | 72 | 61 | 29.94 | SW | 3 | 0.00 |
| 32 | 08/18 | 17:00 | 89 | 74 | 62 | 29.95 | SSW | 5 | 0.00 |
| 33 | 08/18 | 16:00 | 90 | 76 | 65 | 29.97 | WNW | 2 | 0.00 |
| 34 | 08/18 | 15:00 | 87 | 73 | 64 | 30.00 | SSW | 0 | 0.00 |
| 35 | 08/18 | 14:00 | 89 | 73 | 61 | 30.01 | SSW | 7 | 0.00 |
| 36 | 08/18 | 13:00 | 88 | 74 | 64 | 30.04 | SSW | 5 | 0.00 |
| 37 | 08/18 | 12:00 | 86 | 73 | 67 | 30.06 | SSW | 0 | 0.00 |
| 38 | 08/18 | 11:00 | 82 | 71 | 71 | 30.08 | NW | 0 | 0.00 |
| 39 | 08/18 | 10:00 | 80 | 71 | 76 | 30.09 | SW | 6 | 0.00 |
| 40 | 08/18 | 09:00 | 76 | 69 | 81 | 30.09 | SSW | 0 | 0.00 |
| 41 | 08/18 | 08:00 | 72 | 70 | 94 | 30.09 | SE | 0 | 0.00 |
| 42 | 08/18 | 07:00 | 69 | 67 | 95 | 30.09 | NW | 0 | 0.00 |
| 43 | 08/18 | 06:00 | 68 | 66 | 94 | 30.09 | NW | 0 | 0.00 |
| 44 | 08/18 | 05:00 | 68 | 65 | 93 | 30.09 | NW | 0 | 0.00 |
| 45 | 08/18 | 04:00 | 70 | 66 | 90 | 30.11 | NW | 0 | 0.00 |
| 46 | 08/18 | 03:00 | 69 | 65 | 89 | 30.11 | W | 0 | 0.00 |
| 47 | 08/18 | 02:00 | 72 | 66 | 82 | 30.12 | W | 0 | 0.00 |
| 48 | 08/18 | 01:00 | 73 | 66 | 79 | 30.13 | WSW | 0 | 0.00 |
| 49 | 08/18 | 00:00 | 73 | 66 | 79 | 30.13 | WSW | 0 | 0.00 |
| 50 | 08/17 | 23:00 | 73 | 66 | 81 | 30.13 | W | 0 | 0.00 |
| 51 | 08/17 | 22:00 | 76 | 67 | 74 | 30.12 | SW | 0 | 0.00 |
| 52 | 08/17 | 21:00 | 79 | 68 | 70 | 30.10 | S | 0 | 0.00 |
| 53 | 08/17 | 20:00 | 82 | 69 | 67 | 30.09 | SSW | 3 | 0.00 |
| 54 | 08/17 | 19:00 | 85 | 69 | 61 | 30.08 | SW | 4 | 0.00 |
| 55 | 08/17 | 18:00 | 87 | 67 | 53 | 30.08 | SW | 7 | 0.00 |
| 56 | 08/17 | 17:00 | 90 | 68 | 50 | 30.09 | SSW | 6 | 0.00 |
| 57 | 08/17 | 16:00 | 91 | 70 | 52 | 30.11 | S | 3 | 0.00 |
| 58 | 08/17 | 15:00 | 91 | 72 | 56 | 30.13 | SW | 5 | 0.00 |
| 59 | 08/17 | 14:00 | 89 | 70 | 55 | 30.16 | SE | 3 | 0.00 |
| 60 | 08/17 | 13:00 | 89 | 71 | 57 | 30.18 | WSW | 4 | 0.00 |
| 61 | 08/17 | 12:00 | 88 | 75 | 66 | 30.19 | SW | 7 | 0.00 |
| 62 | 08/17 | 11:00 | 84 | 71 | 66 | 30.19 | SSW | 0 | 0.00 |